createdAt,value
2019-03-31T00:00:38.187Z,69.80
2019-03-31T00:01:38.211Z,70.80
2019-03-31T00:02:38.196Z,73.40
2019-03-31T00:03:38.185Z,71.50
2019-03-31T00:04:38.152Z,73.40
2019-03-31T00:05:38.143Z,72.20
2019-03-31T00:06:38.149Z,67.20
2019-03-31T00:07:38.185Z,71.50
2019-03-31T00:08:38.108Z,71.30
2019-03-31T00:09:38.108Z,74.50
2019-03-31T00:10:38.085Z,70.30
2019-03-31T00:11:38.078Z,69.30
2019-03-31T00:12:38.093Z,70.00
2019-03-31T00:13:38.081Z,70.20
2019-03-31T00:14:38.037Z,71.70
2019-03-31T00:15:38.070Z,72.60
2019-03-31T00:16:38.017Z,68.40
2019-03-31T00:17:39.039Z,74.00
2019-03-31T00:18:39.034Z,73.20
2019-03-31T00:19:39.044Z,69.70
2019-03-31T00:20:39.551Z,70.40
2019-03-31T00:21:38.537Z,71.80
2019-03-31T00:22:39.029Z,71.80
2019-03-31T00:23:37.942Z,74.00
2019-03-31T00:24:37.933Z,75.20
2019-03-31T00:25:37.919Z,77.00
2019-03-31T00:26:37.909Z,75.30
2019-03-31T00:27:37.924Z,72.40
2019-03-31T00:28:37.894Z,76.30
2019-03-31T00:29:37.879Z,77.50
2019-03-31T00:30:37.870Z,79.30
2019-03-31T00:31:37.855Z,78.70
2019-03-31T00:32:37.868Z,81.50
2019-03-31T00:33:37.843Z,78.60
2019-03-31T00:34:37.827Z,83.10
2019-03-31T00:35:37.825Z,81.50
2019-03-31T00:36:37.794Z,78.00
2019-03-31T00:37:37.828Z,80.60
2019-03-31T00:38:37.780Z,81.20
2019-03-31T00:39:37.789Z,86.10
2019-03-31T00:40:37.756Z,82.80
2019-03-31T00:41:37.750Z,84.00
2019-03-31T00:42:37.770Z,81.50
2019-03-31T00:43:37.764Z,81.30
2019-03-31T00:44:37.716Z,83.80
2019-03-31T00:45:37.707Z,84.00
2019-03-31T00:46:37.699Z,81.70
2019-03-31T00:47:37.714Z,85.10
2019-03-31T00:48:37.670Z,82.10
2019-03-31T00:49:37.660Z,82.40
2019-03-31T00:50:37.652Z,85.50
2019-03-31T00:51:37.658Z,85.10
2019-03-31T00:52:37.651Z,82.30
2019-03-31T00:53:37.621Z,82.00
2019-03-31T00:54:37.610Z,85.20
2019-03-31T00:55:37.603Z,86.60
2019-03-31T00:56:37.581Z,82.00
2019-03-31T00:57:37.595Z,82.90
2019-03-31T00:58:37.564Z,83.50
2019-03-31T00:59:37.546Z,86.90
2019-03-31T01:00:37.544Z,85.70
2019-03-31T01:01:37.539Z,88.90
2019-03-31T01:02:37.587Z,88.00
2019-03-31T01:03:37.512Z,83.60
2019-03-31T01:04:37.502Z,86.30
2019-03-31T01:05:37.479Z,86.30
2019-03-31T01:06:37.469Z,87.40
2019-03-31T01:07:37.525Z,89.40
2019-03-31T01:08:37.456Z,90.20
2019-03-31T01:09:37.446Z,92.70
2019-03-31T01:10:37.436Z,85.30
2019-03-31T01:11:37.416Z,92.10
2019-03-31T01:12:37.439Z,95.50
2019-03-31T01:13:37.405Z,95.40
2019-03-31T01:14:37.399Z,93.50
2019-03-31T01:15:37.377Z,93.20
2019-03-31T01:16:37.366Z,96.80
2019-03-31T01:17:37.395Z,95.20
2019-03-31T01:18:37.340Z,95.50
2019-03-31T01:19:37.400Z,94.00
2019-03-31T01:20:37.328Z,101.20
2019-03-31T01:21:37.317Z,94.70
2019-03-31T01:22:37.334Z,94.50
2019-03-31T01:23:37.292Z,94.80
2019-03-31T01:24:37.273Z,98.30
2019-03-31T01:25:37.262Z,100.70
2019-03-31T01:26:37.257Z,98.50
2019-03-31T01:27:37.282Z,95.40
2019-03-31T01:28:37.238Z,96.30
2019-03-31T01:29:37.225Z,96.50
2019-03-31T01:30:37.204Z,103.50
2019-03-31T01:31:49.606Z,102.30
2019-03-31T01:32:38.216Z,99.50
2019-03-31T01:33:37.177Z,101.60
2019-03-31T01:34:37.167Z,100.90
2019-03-31T01:35:37.156Z,101.50
2019-03-31T01:36:37.142Z,97.80
2019-03-31T01:37:37.163Z,97.80
2019-03-31T01:38:37.129Z,102.90
2019-03-31T01:39:37.107Z,97.10
2019-03-31T01:40:37.114Z,104.60
2019-03-31T01:41:37.087Z,101.10
2019-03-31T01:42:37.104Z,102.50
2019-03-31T01:43:37.080Z,99.80
2019-03-31T01:44:37.052Z,98.80
2019-03-31T01:45:37.063Z,100.50
2019-03-31T01:46:37.045Z,101.50
2019-03-31T01:47:37.022Z,104.40
2019-03-31T01:48:37.036Z,103.90
2019-03-31T01:49:37.001Z,102.70
2019-03-31T01:50:36.988Z,101.30
2019-03-31T01:51:36.983Z,106.00
2019-03-31T01:52:36.967Z,102.50
2019-03-31T01:53:36.997Z,103.50
2019-03-31T01:54:36.951Z,103.60
2019-03-31T01:55:36.938Z,101.70
2019-03-31T01:56:36.925Z,98.20
2019-03-31T01:57:36.919Z,105.10
2019-03-31T01:58:36.942Z,101.20
2019-03-31T01:59:36.905Z,100.00
2019-03-31T02:00:36.888Z,103.30
2019-03-31T02:01:36.884Z,102.60
2019-03-31T02:02:36.864Z,102.90
2019-03-31T02:03:36.880Z,104.90
2019-03-31T02:04:36.834Z,100.60
2019-03-31T02:05:36.828Z,104.90
2019-03-31T02:06:36.825Z,98.50
2019-03-31T02:07:36.808Z,105.60
2019-03-31T02:08:36.829Z,100.70
2019-03-31T02:09:36.785Z,104.70
2019-03-31T02:10:36.782Z,101.90
2019-03-31T02:11:36.769Z,103.00
2019-03-31T02:12:36.758Z,102.00
2019-03-31T02:13:36.781Z,104.30
2019-03-31T02:14:36.732Z,103.30
2019-03-31T02:15:36.717Z,100.50
2019-03-31T02:16:36.702Z,104.60
2019-03-31T02:17:36.702Z,104.20
2019-03-31T02:18:36.715Z,102.10
2019-03-31T02:19:36.670Z,100.90
2019-03-31T02:20:36.665Z,101.30
2019-03-31T02:21:36.646Z,102.50
2019-03-31T02:22:36.642Z,101.50
2019-03-31T02:23:36.655Z,100.80
2019-03-31T02:24:36.628Z,100.10
2019-03-31T02:25:36.608Z,102.70
2019-03-31T02:26:36.595Z,103.40
2019-03-31T02:27:36.587Z,101.30
2019-03-31T02:28:36.614Z,101.40
2019-03-31T02:29:36.569Z,100.70
2019-03-31T02:30:36.554Z,104.30
2019-03-31T02:31:36.545Z,99.90
2019-03-31T02:32:36.529Z,102.00
2019-03-31T02:33:36.553Z,105.20
2019-03-31T02:34:36.526Z,97.30
2019-03-31T02:35:36.511Z,105.50
2019-03-31T02:36:36.489Z,102.30
2019-03-31T02:37:36.483Z,103.60
2019-03-31T02:38:36.500Z,100.90
2019-03-31T02:39:36.466Z,107.40
2019-03-31T02:40:36.452Z,101.50
2019-03-31T02:41:36.444Z,104.30
2019-03-31T02:42:36.427Z,103.80
2019-03-31T02:43:36.440Z,99.80
2019-03-31T02:44:36.405Z,101.70
2019-03-31T02:45:36.396Z,105.00
2019-03-31T02:46:36.392Z,100.40
2019-03-31T02:47:36.385Z,97.90
2019-03-31T02:48:36.403Z,99.60
2019-03-31T02:49:36.351Z,101.60
2019-03-31T02:50:36.344Z,98.60
2019-03-31T02:51:36.331Z,103.40
2019-03-31T02:52:36.339Z,95.70
2019-03-31T02:53:36.338Z,100.90
2019-03-31T02:54:36.307Z,96.90
2019-03-31T02:55:36.304Z,99.90
2019-03-31T02:56:36.275Z,100.40
2019-03-31T02:57:36.275Z,101.00
2019-03-31T02:58:36.286Z,99.40
2019-03-31T02:59:36.242Z,98.30
2019-03-31T03:00:36.235Z,100.40
2019-03-31T03:01:36.221Z,98.20
2019-03-31T03:02:42.195Z,100.60
2019-03-31T03:03:37.233Z,102.20
2019-03-31T03:04:36.182Z,101.00
2019-03-31T03:05:36.172Z,102.30
2019-03-31T03:06:36.164Z,101.50
2019-03-31T03:07:36.158Z,104.50
2019-03-31T03:08:36.140Z,103.60
2019-03-31T03:09:36.162Z,104.20
2019-03-31T03:10:36.122Z,104.50
2019-03-31T03:11:36.108Z,104.10
2019-03-31T03:12:36.102Z,101.40
2019-03-31T03:13:36.097Z,109.10
2019-03-31T03:14:36.099Z,101.10
2019-03-31T03:15:36.075Z,96.70
2019-03-31T03:16:36.049Z,102.10
2019-03-31T03:17:36.049Z,108.60
2019-03-31T03:18:36.034Z,106.70
2019-03-31T03:19:36.051Z,110.50
2019-03-31T03:20:36.019Z,107.90
2019-03-31T03:21:35.997Z,109.40
2019-03-31T03:22:35.983Z,110.50
2019-03-31T03:23:35.974Z,108.80
2019-03-31T03:24:35.999Z,110.60
2019-03-31T03:25:35.958Z,112.60
2019-03-31T03:26:35.949Z,110.20
2019-03-31T03:27:35.943Z,110.30
2019-03-31T03:28:35.923Z,109.10
2019-03-31T03:29:35.940Z,109.10
2019-03-31T03:30:36.005Z,110.10
2019-03-31T03:31:35.920Z,111.50
2019-03-31T03:32:35.882Z,103.50
2019-03-31T03:33:35.862Z,104.70
2019-03-31T03:34:35.899Z,111.10
2019-03-31T03:35:35.849Z,110.70
2019-03-31T03:36:35.841Z,108.60
2019-03-31T03:37:35.831Z,108.80
2019-03-31T03:38:35.822Z,110.10
2019-03-31T03:39:35.839Z,109.80
2019-03-31T03:40:35.798Z,113.80
2019-03-31T03:41:35.797Z,111.20
2019-03-31T03:42:35.771Z,108.40
2019-03-31T03:43:53.602Z,109.40
2019-03-31T03:44:36.780Z,114.00
2019-03-31T03:45:35.756Z,114.90
2019-03-31T03:46:35.731Z,115.70
2019-03-31T03:47:35.713Z,113.00
2019-03-31T03:48:35.812Z,114.60
2019-03-31T03:49:36.645Z,117.30
2019-03-31T03:50:35.688Z,121.10
2019-03-31T03:51:35.672Z,112.50
2019-03-31T03:52:35.662Z,118.40
2019-03-31T03:53:35.652Z,111.40
2019-03-31T03:54:35.695Z,114.00
2019-03-31T03:55:35.637Z,117.70
2019-03-31T03:56:35.613Z,111.50
2019-03-31T03:57:35.616Z,114.00
2019-03-31T03:58:35.601Z,119.30
2019-03-31T03:59:35.638Z,116.00
2019-03-31T04:00:35.583Z,114.90
2019-03-31T04:01:35.567Z,117.30
2019-03-31T04:02:35.560Z,117.20
2019-03-31T04:03:35.552Z,118.30
2019-03-31T04:04:35.571Z,112.00
2019-03-31T04:05:35.521Z,113.40
2019-03-31T04:06:35.517Z,113.30
2019-03-31T04:07:35.504Z,111.30
2019-03-31T04:08:35.491Z,111.80
2019-03-31T04:09:35.505Z,108.20
2019-03-31T04:10:35.467Z,103.20
2019-03-31T04:11:35.466Z,105.50
2019-03-31T04:12:35.453Z,101.30
2019-03-31T04:13:35.457Z,108.30
2019-03-31T04:14:35.449Z,105.00
2019-03-31T04:15:35.414Z,105.90
2019-03-31T04:16:35.401Z,111.80
2019-03-31T04:17:35.406Z,106.90
2019-03-31T04:18:35.382Z,105.50
2019-03-31T04:19:35.414Z,111.60
2019-03-31T04:20:39.147Z,107.00
2019-03-31T04:21:35.350Z,108.50
2019-03-31T04:22:35.341Z,105.80
2019-03-31T04:23:35.340Z,108.40
2019-03-31T04:24:35.345Z,110.90
2019-03-31T04:25:35.314Z,107.50
2019-03-31T04:26:35.294Z,105.70
2019-03-31T04:27:35.282Z,108.80
2019-03-31T04:28:35.279Z,105.50
2019-03-31T04:29:35.305Z,106.90
2019-03-31T04:30:35.254Z,103.90
2019-03-31T04:31:35.256Z,105.40
2019-03-31T04:32:38.717Z,101.10
2019-03-31T04:33:50.450Z,102.40
2019-03-31T04:34:36.245Z,101.70
2019-03-31T04:35:35.210Z,101.20
2019-03-31T04:36:35.191Z,103.20
2019-03-31T04:37:35.182Z,105.30
2019-03-31T04:38:35.163Z,101.50
2019-03-31T04:39:35.203Z,100.30
2019-03-31T04:40:35.150Z,98.30
2019-03-31T04:41:35.149Z,102.50
2019-03-31T04:42:35.129Z,99.60
2019-03-31T04:43:35.119Z,103.10
2019-03-31T04:44:35.100Z,100.10
2019-03-31T04:45:35.116Z,102.20
2019-03-31T04:46:35.092Z,102.30
2019-03-31T04:47:35.073Z,100.00
2019-03-31T04:48:35.077Z,94.60
2019-03-31T04:49:35.044Z,101.80
2019-03-31T04:50:35.064Z,97.30
2019-03-31T04:51:35.030Z,96.60
2019-03-31T04:52:35.024Z,94.70
2019-03-31T04:53:35.001Z,100.50
2019-03-31T04:54:35.007Z,95.90
2019-03-31T04:55:35.015Z,96.80
2019-03-31T04:56:34.974Z,98.30
2019-03-31T04:57:34.974Z,96.50
2019-03-31T04:58:34.959Z,95.90
2019-03-31T04:59:34.940Z,98.50
2019-03-31T05:00:34.967Z,98.60
2019-03-31T05:01:34.914Z,96.90
2019-03-31T05:02:34.905Z,93.70
2019-03-31T05:03:34.907Z,94.00
2019-03-31T05:04:34.882Z,93.40
2019-03-31T05:05:34.914Z,91.60
2019-03-31T05:06:34.875Z,91.50
2019-03-31T05:07:34.849Z,94.50
2019-03-31T05:08:34.851Z,91.70
2019-03-31T05:09:34.832Z,93.80
2019-03-31T05:10:34.850Z,88.50
2019-03-31T05:11:34.811Z,101.30
2019-03-31T05:12:34.799Z,107.40
2019-03-31T05:13:34.789Z,98.10
2019-03-31T05:14:34.801Z,90.50
2019-03-31T05:15:34.799Z,89.50
2019-03-31T05:16:34.755Z,93.20
2019-03-31T05:17:35.935Z,94.10
2019-03-31T05:18:34.733Z,96.80
2019-03-31T05:19:34.763Z,96.00
2019-03-31T05:20:34.734Z,94.30
2019-03-31T05:21:34.710Z,91.00
2019-03-31T05:22:34.694Z,92.70
2019-03-31T05:23:34.679Z,89.40
2019-03-31T05:24:34.670Z,99.50
2019-03-31T05:25:44.157Z,94.00
2019-03-31T05:26:34.637Z,85.60
2019-03-31T05:27:34.620Z,89.00
2019-03-31T05:28:34.611Z,85.70
2019-03-31T05:29:34.606Z,88.90
2019-03-31T05:30:34.619Z,83.70
2019-03-31T05:31:34.582Z,85.50
2019-03-31T05:32:34.572Z,81.70
2019-03-31T05:33:34.556Z,87.30
2019-03-31T05:34:34.551Z,87.00
2019-03-31T05:35:34.563Z,86.50
2019-03-31T05:36:34.524Z,80.50
2019-03-31T05:37:34.516Z,81.90
2019-03-31T05:38:34.516Z,88.60
2019-03-31T05:39:34.495Z,83.40
2019-03-31T05:40:34.507Z,80.60
2019-03-31T05:41:34.472Z,80.00
2019-03-31T05:42:34.462Z,81.90
2019-03-31T05:43:34.447Z,88.00
2019-03-31T05:44:34.440Z,82.50
2019-03-31T05:45:34.457Z,87.50
2019-03-31T05:46:34.421Z,85.70
2019-03-31T05:47:34.412Z,83.70
2019-03-31T05:48:34.396Z,82.90
2019-03-31T05:49:34.389Z,82.50
2019-03-31T05:50:34.399Z,85.40
2019-03-31T05:51:34.365Z,83.20
2019-03-31T05:52:34.355Z,80.50
2019-03-31T05:53:34.350Z,82.10
2019-03-31T05:54:35.184Z,86.40
2019-03-31T05:55:34.348Z,83.60
2019-03-31T05:56:34.315Z,89.40
2019-03-31T05:57:34.302Z,85.70
2019-03-31T05:58:34.288Z,87.50
2019-03-31T05:59:34.275Z,85.00
2019-03-31T06:00:34.319Z,87.10
2019-03-31T06:01:34.261Z,88.50
2019-03-31T06:02:34.246Z,88.30
2019-03-31T06:03:34.266Z,89.60
2019-03-31T06:04:34.246Z,88.20
2019-03-31T06:05:34.434Z,90.50
2019-03-31T06:06:36.944Z,101.80
2019-03-31T06:07:34.294Z,93.60
2019-03-31T06:08:34.202Z,95.00
2019-03-31T06:09:34.314Z,98.00
2019-03-31T06:10:34.188Z,103.10
2019-03-31T06:11:34.233Z,104.70
2019-03-31T06:12:34.437Z,104.20
2019-03-31T06:13:34.128Z,103.50
2019-03-31T06:14:34.120Z,107.40
2019-03-31T06:15:34.160Z,104.60
2019-03-31T06:16:34.362Z,105.80
2019-03-31T06:17:34.083Z,110.00
2019-03-31T06:18:34.075Z,107.80
2019-03-31T06:19:34.066Z,110.10
2019-03-31T06:20:34.054Z,112.50
2019-03-31T06:21:34.068Z,116.20
2019-03-31T06:22:34.032Z,112.00
2019-03-31T06:23:34.021Z,118.50
2019-03-31T06:24:34.008Z,110.10
2019-03-31T06:25:34.002Z,115.70
2019-03-31T06:26:34.015Z,112.40
2019-03-31T06:27:33.979Z,118.50
2019-03-31T06:28:33.963Z,120.20
2019-03-31T06:29:33.951Z,114.80
2019-03-31T06:30:33.945Z,109.80
2019-03-31T06:31:33.959Z,117.40
2019-03-31T06:32:33.927Z,111.00
2019-03-31T06:33:33.920Z,116.70
2019-03-31T06:34:46.871Z,121.40
2019-03-31T06:35:34.933Z,114.70
2019-03-31T06:36:33.903Z,115.60
2019-03-31T06:37:33.873Z,112.30
2019-03-31T06:38:33.854Z,114.50
2019-03-31T06:39:34.315Z,114.60
2019-03-31T06:40:33.832Z,113.50
2019-03-31T06:41:33.856Z,106.10
2019-03-31T06:42:33.812Z,106.50
2019-03-31T06:43:33.804Z,112.00
2019-03-31T06:44:33.790Z,107.70
2019-03-31T06:45:33.780Z,108.90
2019-03-31T06:46:33.802Z,107.40
2019-03-31T06:47:33.770Z,106.10
2019-03-31T06:48:33.746Z,101.50
2019-03-31T06:49:33.739Z,99.70
2019-03-31T06:50:33.729Z,103.10
2019-03-31T06:51:33.741Z,99.60
2019-03-31T06:52:33.706Z,93.30
2019-03-31T06:53:33.695Z,93.20
2019-03-31T06:54:33.686Z,92.50
2019-03-31T06:55:33.674Z,93.60
2019-03-31T06:56:33.690Z,91.80
2019-03-31T06:57:33.652Z,87.10
2019-03-31T06:58:33.639Z,88.70
2019-03-31T06:59:33.628Z,85.70
2019-03-31T07:00:33.625Z,86.80
2019-03-31T07:01:33.635Z,87.80
2019-03-31T07:02:33.597Z,83.70
2019-03-31T07:03:33.586Z,84.00
2019-03-31T07:04:33.578Z,79.80
2019-03-31T07:05:33.566Z,72.90
2019-03-31T07:06:33.579Z,78.90
2019-03-31T07:07:33.540Z,74.10
2019-03-31T07:08:33.532Z,77.10
2019-03-31T07:09:33.538Z,69.50
2019-03-31T07:10:33.510Z,67.50
2019-03-31T07:11:33.542Z,69.50
2019-03-31T07:12:33.491Z,69.20
2019-03-31T07:13:33.479Z,70.50
2019-03-31T07:14:33.472Z,70.30
2019-03-31T07:15:33.458Z,68.90
2019-03-31T07:16:33.470Z,63.10
2019-03-31T07:17:33.439Z,68.60
2019-03-31T07:18:33.420Z,59.30
2019-03-31T07:19:33.419Z,59.90
2019-03-31T07:20:33.404Z,60.50
2019-03-31T07:21:33.436Z,57.40
2019-03-31T07:22:33.380Z,57.20
2019-03-31T07:23:33.366Z,55.90
2019-03-31T07:24:33.402Z,58.40
2019-03-31T07:25:33.349Z,49.60
2019-03-31T07:26:33.342Z,49.30
2019-03-31T07:27:33.351Z,48.70
2019-03-31T07:28:33.322Z,48.00
2019-03-31T07:29:33.303Z,46.50
2019-03-31T07:30:33.297Z,45.80
2019-03-31T07:31:33.283Z,44.20
2019-03-31T07:32:33.299Z,50.90
2019-03-31T07:33:33.263Z,47.20
2019-03-31T07:34:33.251Z,45.30
2019-03-31T07:35:33.252Z,47.80
2019-03-31T07:36:33.234Z,44.40
2019-03-31T07:37:46.378Z,45.90
2019-03-31T07:38:39.204Z,44.30
2019-03-31T07:39:34.534Z,45.30
2019-03-31T07:40:33.502Z,45.90
2019-03-31T07:41:33.400Z,43.00
2019-03-31T07:42:33.194Z,41.20
2019-03-31T07:43:33.152Z,41.10
2019-03-31T07:44:33.145Z,43.40
2019-03-31T07:45:33.134Z,42.20
2019-03-31T07:46:33.125Z,43.10
2019-03-31T07:47:33.140Z,38.50
2019-03-31T07:48:33.102Z,40.30
2019-03-31T07:49:33.088Z,39.70
2019-03-31T07:50:33.075Z,42.90
2019-03-31T07:51:33.070Z,41.10
2019-03-31T07:52:33.081Z,39.20
2019-03-31T07:53:33.046Z,41.40
2019-03-31T07:54:33.031Z,39.90
2019-03-31T07:55:33.020Z,41.40
2019-03-31T07:56:33.009Z,39.90
2019-03-31T07:57:33.054Z,39.40
2019-03-31T07:58:32.994Z,40.30
2019-03-31T07:59:33.031Z,37.50
2019-03-31T08:00:32.967Z,39.30
2019-03-31T08:01:32.957Z,35.30
2019-03-31T08:02:32.971Z,36.80
2019-03-31T08:03:32.933Z,35.60
2019-03-31T08:04:32.925Z,36.80
2019-03-31T08:05:37.410Z,33.40
2019-03-31T08:06:32.906Z,35.10
2019-03-31T08:07:32.917Z,38.20
2019-03-31T08:08:32.883Z,33.30
2019-03-31T08:09:32.869Z,33.30
2019-03-31T08:10:32.866Z,38.20
2019-03-31T08:11:32.852Z,35.70
2019-03-31T08:12:32.872Z,35.50
2019-03-31T08:13:32.823Z,36.00
2019-03-31T08:14:32.830Z,36.60
2019-03-31T08:15:32.810Z,29.50
2019-03-31T08:16:32.797Z,30.20
2019-03-31T08:17:32.824Z,28.30
2019-03-31T08:18:32.771Z,29.90
2019-03-31T08:19:32.764Z,29.90
2019-03-31T08:20:32.749Z,27.80
2019-03-31T08:21:32.742Z,27.10
2019-03-31T08:22:32.758Z,27.80
2019-03-31T08:23:32.721Z,28.20
2019-03-31T08:24:32.707Z,27.00
2019-03-31T08:25:32.697Z,29.50
2019-03-31T08:26:32.687Z,30.70
2019-03-31T08:27:32.709Z,30.40
2019-03-31T08:28:32.665Z,29.20
2019-03-31T08:29:32.655Z,29.60
2019-03-31T08:30:32.648Z,28.70
2019-03-31T08:31:32.638Z,27.60
2019-03-31T08:32:32.652Z,28.90
2019-03-31T08:33:32.612Z,27.60
2019-03-31T08:34:32.599Z,27.40
2019-03-31T08:35:46.213Z,26.90
2019-03-31T08:36:35.268Z,28.60
2019-03-31T08:37:32.674Z,28.30
2019-03-31T08:38:32.568Z,32.50
2019-03-31T08:39:32.554Z,29.10
2019-03-31T08:40:32.537Z,27.20
2019-03-31T08:41:32.526Z,25.80
2019-03-31T08:42:32.543Z,26.40
2019-03-31T08:43:32.503Z,25.40
2019-03-31T08:44:32.491Z,26.30
2019-03-31T08:45:32.480Z,26.50
2019-03-31T08:46:32.468Z,25.40
2019-03-31T08:47:32.488Z,24.70
2019-03-31T08:48:32.450Z,26.30
2019-03-31T08:49:32.438Z,27.50
2019-03-31T08:50:34.788Z,25.00
2019-03-31T08:51:32.496Z,22.70
2019-03-31T08:52:32.432Z,22.80
2019-03-31T08:53:32.398Z,22.60
2019-03-31T08:54:32.389Z,21.60
2019-03-31T08:55:32.377Z,24.50
2019-03-31T08:56:32.369Z,20.30
2019-03-31T08:57:32.379Z,22.60
2019-03-31T08:58:32.376Z,24.00
2019-03-31T08:59:32.327Z,23.50
2019-03-31T09:00:32.317Z,23.10
2019-03-31T09:01:32.302Z,19.70
2019-03-31T09:02:32.298Z,19.60
2019-03-31T09:03:32.321Z,16.50
2019-03-31T09:04:32.271Z,18.80
2019-03-31T09:05:32.265Z,16.30
2019-03-31T09:06:32.259Z,17.10
2019-03-31T09:07:32.242Z,16.40
2019-03-31T09:08:32.264Z,15.00
2019-03-31T09:09:32.222Z,14.60
2019-03-31T09:10:32.212Z,12.70
2019-03-31T09:11:32.195Z,14.50
2019-03-31T09:12:32.191Z,14.80
2019-03-31T09:13:32.208Z,15.20
2019-03-31T09:14:32.163Z,13.80
2019-03-31T09:15:32.161Z,13.80
2019-03-31T09:16:32.145Z,13.10
2019-03-31T09:17:32.131Z,12.20
2019-03-31T09:18:32.149Z,11.00
2019-03-31T09:19:32.117Z,13.70
2019-03-31T09:20:32.107Z,15.90
2019-03-31T09:21:32.088Z,12.50
2019-03-31T09:22:32.077Z,12.00
2019-03-31T09:23:32.093Z,9.90
2019-03-31T09:24:32.060Z,11.90
2019-03-31T09:25:32.045Z,11.80
2019-03-31T09:26:32.037Z,14.50
2019-03-31T09:27:32.029Z,11.90
2019-03-31T09:28:32.040Z,13.20
2019-03-31T09:29:32.016Z,11.50
2019-03-31T09:30:32.001Z,12.50
2019-03-31T09:31:31.981Z,13.50
2019-03-31T09:32:31.969Z,16.10
2019-03-31T09:33:31.987Z,13.40
2019-03-31T09:34:31.953Z,12.90
2019-03-31T09:35:31.943Z,11.60
2019-03-31T09:36:31.922Z,14.50
2019-03-31T09:37:31.925Z,10.40
2019-03-31T09:38:31.936Z,11.40
2019-03-31T09:39:31.902Z,10.20
2019-03-31T09:40:31.886Z,10.20
2019-03-31T09:41:31.875Z,12.90
2019-03-31T09:42:31.863Z,10.20
2019-03-31T09:43:31.877Z,11.50
2019-03-31T09:44:31.846Z,11.70
2019-03-31T09:45:31.832Z,12.70
2019-03-31T09:46:31.831Z,13.40
2019-03-31T09:47:31.813Z,13.20
2019-03-31T09:48:31.834Z,13.10
2019-03-31T09:49:31.789Z,15.20
2019-03-31T09:50:31.779Z,14.40
2019-03-31T09:51:31.774Z,14.90
2019-03-31T09:52:31.759Z,14.40
2019-03-31T09:53:31.776Z,12.60
2019-03-31T09:54:31.740Z,11.80
2019-03-31T09:55:31.728Z,13.00
2019-03-31T09:56:31.715Z,10.20
2019-03-31T09:57:31.710Z,12.30
2019-03-31T09:58:31.714Z,10.00
2019-03-31T09:59:31.684Z,10.40
2019-03-31T10:00:31.673Z,9.50
2019-03-31T10:01:31.662Z,12.60
2019-03-31T10:02:31.651Z,11.40
2019-03-31T10:03:31.675Z,13.30
2019-03-31T10:04:31.638Z,10.60
2019-03-31T10:05:31.618Z,12.70
2019-03-31T10:06:31.607Z,8.90
2019-03-31T10:07:31.601Z,10.00
2019-03-31T10:08:31.612Z,9.60
2019-03-31T10:09:31.578Z,9.10
2019-03-31T10:10:31.560Z,9.50
2019-03-31T10:11:31.562Z,9.00
2019-03-31T10:12:31.539Z,9.80
2019-03-31T10:13:31.558Z,10.50
2019-03-31T10:14:31.526Z,12.00
2019-03-31T10:15:31.507Z,13.00
2019-03-31T10:16:31.509Z,13.20
2019-03-31T10:17:31.488Z,9.90
2019-03-31T10:18:31.504Z,11.80
2019-03-31T10:19:31.462Z,10.50
2019-03-31T10:20:31.907Z,11.00
2019-03-31T10:21:31.446Z,10.40
2019-03-31T10:22:31.437Z,11.10
2019-03-31T10:23:31.444Z,12.20
2019-03-31T10:24:31.408Z,11.10
2019-03-31T10:25:31.404Z,12.80
2019-03-31T10:26:32.500Z,11.00
2019-03-31T10:27:31.376Z,11.40
2019-03-31T10:28:31.395Z,11.70
2019-03-31T10:29:31.352Z,11.10
2019-03-31T10:30:31.351Z,12.00
2019-03-31T10:31:31.336Z,11.90
2019-03-31T10:32:31.327Z,14.00
2019-03-31T10:33:31.337Z,12.90
2019-03-31T10:34:31.299Z,12.10
2019-03-31T10:35:31.291Z,10.20
2019-03-31T10:36:43.805Z,11.40
2019-03-31T10:37:32.269Z,11.80
2019-03-31T10:38:31.279Z,11.40
2019-03-31T10:39:31.245Z,10.90
2019-03-31T10:40:31.235Z,10.50
2019-03-31T10:41:31.228Z,11.80
2019-03-31T10:42:31.214Z,12.00
2019-03-31T10:43:31.221Z,12.10
2019-03-31T10:44:31.193Z,11.20
2019-03-31T10:45:31.173Z,11.20
2019-03-31T10:46:31.168Z,11.00
2019-03-31T10:47:31.157Z,11.10
2019-03-31T10:48:31.184Z,10.30
2019-03-31T10:49:31.144Z,12.20
2019-03-31T10:50:31.124Z,11.20
2019-03-31T10:51:31.113Z,11.80
2019-03-31T10:52:31.102Z,10.30
2019-03-31T10:53:31.088Z,12.10
2019-03-31T10:54:31.116Z,11.20
2019-03-31T10:55:31.104Z,11.30
2019-03-31T10:56:31.055Z,9.90
2019-03-31T10:57:31.046Z,11.20
2019-03-31T10:58:31.035Z,9.90
2019-03-31T10:59:31.048Z,11.00
2019-03-31T11:00:31.016Z,10.60
2019-03-31T11:01:31.003Z,10.10
2019-03-31T11:02:30.986Z,13.90
2019-03-31T11:03:33.081Z,11.00
2019-03-31T11:04:31.000Z,11.20
2019-03-31T11:05:30.967Z,10.60
2019-03-31T11:06:30.971Z,10.20
2019-03-31T11:07:30.936Z,10.70
2019-03-31T11:08:30.929Z,9.70
2019-03-31T11:09:34.249Z,10.90
2019-03-31T11:10:30.906Z,11.40
2019-03-31T11:11:30.893Z,11.90
2019-03-31T11:12:30.886Z,9.70
2019-03-31T11:13:30.876Z,9.50
2019-03-31T11:14:30.892Z,10.10
2019-03-31T11:15:30.857Z,11.60
2019-03-31T11:16:30.843Z,11.60
2019-03-31T11:17:30.832Z,10.30
2019-03-31T11:18:30.819Z,11.30
2019-03-31T11:19:30.908Z,9.90
2019-03-31T11:20:30.802Z,10.50
2019-03-31T11:21:30.797Z,10.10
2019-03-31T11:22:30.786Z,11.80
2019-03-31T11:23:30.768Z,10.80
2019-03-31T11:24:30.782Z,11.40
2019-03-31T11:25:41.768Z,10.70
2019-03-31T11:26:30.731Z,11.40
2019-03-31T11:27:30.726Z,11.40
2019-03-31T11:28:30.715Z,11.00
2019-03-31T11:29:30.727Z,11.90
2019-03-31T11:30:30.688Z,10.50
2019-03-31T11:31:30.751Z,12.90
2019-03-31T11:32:30.673Z,9.40
2019-03-31T11:33:30.657Z,10.30
2019-03-31T11:34:30.673Z,10.10
2019-03-31T11:35:30.637Z,12.70
2019-03-31T11:36:30.623Z,12.60
2019-03-31T11:37:30.614Z,12.90
2019-03-31T11:38:30.607Z,10.40
2019-03-31T11:39:30.624Z,10.50
2019-03-31T11:40:30.587Z,10.20
2019-03-31T11:41:30.587Z,11.40
2019-03-31T11:42:30.639Z,11.00
2019-03-31T11:43:30.555Z,11.60
2019-03-31T11:44:30.604Z,10.60
2019-03-31T11:45:30.535Z,11.60
2019-03-31T11:46:30.521Z,12.60
2019-03-31T11:47:30.503Z,11.70
2019-03-31T11:48:30.501Z,10.10
2019-03-31T11:49:30.517Z,12.10
2019-03-31T11:50:30.475Z,13.80
2019-03-31T11:51:30.465Z,10.50
2019-03-31T11:52:30.450Z,11.40
2019-03-31T11:53:30.453Z,12.30
2019-03-31T11:54:30.474Z,11.30
2019-03-31T11:55:30.423Z,10.10
2019-03-31T11:56:30.409Z,10.90
2019-03-31T11:57:30.397Z,9.80
2019-03-31T11:58:32.264Z,10.70
2019-03-31T11:59:30.452Z,9.90
2019-03-31T12:00:30.367Z,9.60
2019-03-31T12:01:30.361Z,11.00
2019-03-31T12:02:30.342Z,11.10
2019-03-31T12:03:31.186Z,10.30
2019-03-31T12:04:30.353Z,11.30
2019-03-31T12:05:30.311Z,11.20
2019-03-31T12:06:30.299Z,9.60
2019-03-31T12:07:30.288Z,10.50
2019-03-31T12:08:30.281Z,9.40
2019-03-31T12:09:30.296Z,11.30
2019-03-31T12:10:30.264Z,9.10
2019-03-31T12:11:30.248Z,10.30
2019-03-31T12:12:30.238Z,9.20
2019-03-31T12:13:30.235Z,8.40
2019-03-31T12:14:30.244Z,10.40
2019-03-31T12:15:30.205Z,10.60
2019-03-31T12:16:30.192Z,10.30
2019-03-31T12:17:30.185Z,10.20
2019-03-31T12:18:30.203Z,9.40
2019-03-31T12:19:30.197Z,8.50
2019-03-31T12:20:30.155Z,9.20
2019-03-31T12:21:30.141Z,8.70
2019-03-31T12:22:30.131Z,8.00
2019-03-31T12:23:30.116Z,8.70
2019-03-31T12:24:30.098Z,9.00
2019-03-31T12:25:30.130Z,9.50
2019-03-31T12:26:30.083Z,8.60
2019-03-31T12:27:30.071Z,8.00
2019-03-31T12:28:30.073Z,8.20
2019-03-31T12:29:30.047Z,7.90
2019-03-31T12:30:30.071Z,10.50
2019-03-31T12:31:30.028Z,7.40
2019-03-31T12:32:30.022Z,9.00
2019-03-31T12:33:30.063Z,7.60
2019-03-31T12:34:30.004Z,9.30
2019-03-31T12:35:30.023Z,8.60
2019-03-31T12:36:29.981Z,11.30
2019-03-31T12:37:41.593Z,9.40
2019-03-31T12:38:30.971Z,8.50
2019-03-31T12:39:29.952Z,11.10
2019-03-31T12:40:29.960Z,9.60
2019-03-31T12:41:29.923Z,9.60
2019-03-31T12:42:29.911Z,9.90
2019-03-31T12:43:29.907Z,8.90
2019-03-31T12:44:29.896Z,11.10
2019-03-31T12:45:29.926Z,9.40
2019-03-31T12:46:29.868Z,9.80
2019-03-31T12:47:29.863Z,10.90